sensor_id;sensor_type;location;lat;lon;timestamp;P1;durP1;ratioP1;P2;durP2;ratioP2
43540;SDS011;29549;40.386;-3.710;2022-07-25T00:08:04;13.82;;;5.05;;
43540;SDS011;29549;40.386;-3.710;2022-07-25T00:18:06;21.30;;;7.72;;
43540;SDS011;29549;40.386;-3.710;2022-07-25T00:28:08;19.75;;;5.57;;
43540;SDS011;29549;40.386;-3.710;2022-07-25T00:38:10;13.70;;;4.95;;
43540;SDS011;29549;40.386;-3.710;2022-07-25T00:48:12;14.93;;;4.32;;
43540;SDS011;29549;40.386;-3.710;2022-07-25T00:58:14;16.90;;;5.90;;
43540;SDS011;29549;40.386;-3.710;2022-07-25T01:08:19;18.65;;;4.72;;
43540;SDS011;29549;40.386;-3.710;2022-07-25T01:18:21;19.52;;;5.35;;
43540;SDS011;29549;40.386;-3.710;2022-07-25T01:28:23;15.45;;;5.15;;
43540;SDS011;29549;40.386;-3.710;2022-07-25T01:38:27;24.55;;;6.45;;
43540;SDS011;29549;40.386;-3.710;2022-07-25T01:48:31;17.73;;;4.18;;
43540;SDS011;29549;40.386;-3.710;2022-07-25T01:58:34;13.18;;;4.90;;
43540;SDS011;29549;40.386;-3.710;2022-07-25T02:08:37;12.98;;;5.30;;
43540;SDS011;29549;40.386;-3.710;2022-07-25T02:18:44;16.70;;;6.10;;
43540;SDS011;29549;40.386;-3.710;2022-07-25T02:28:48;13.63;;;4.57;;
43540;SDS011;29549;40.386;-3.710;2022-07-25T02:38:50;19.13;;;4.68;;
43540;SDS011;29549;40.386;-3.710;2022-07-25T02:48:54;12.07;;;4.63;;
43540;SDS011;29549;40.386;-3.710;2022-07-25T02:58:56;14.25;;;4.45;;
43540;SDS011;29549;40.386;-3.710;2022-07-25T03:08:58;14.63;;;4.25;;
43540;SDS011;29549;40.386;-3.710;2022-07-25T03:19:00;12.95;;;4.18;;
43540;SDS011;29549;40.386;-3.710;2022-07-25T03:29:02;12.82;;;4.82;;
43540;SDS011;29549;40.386;-3.710;2022-07-25T03:39:05;14.80;;;4.10;;
43540;SDS011;29549;40.386;-3.710;2022-07-25T03:49:07;12.82;;;3.92;;
43540;SDS011;29549;40.386;-3.710;2022-07-25T03:59:10;13.32;;;4.65;;
43540;SDS011;29549;40.386;-3.710;2022-07-25T04:09:13;10.90;;;4.65;;
43540;SDS011;29549;40.386;-3.710;2022-07-25T04:19:15;12.77;;;4.18;;
43540;SDS011;29549;40.386;-3.710;2022-07-25T04:29:17;12.20;;;4.28;;
43540;SDS011;29549;40.386;-3.710;2022-07-25T04:39:19;17.23;;;5.55;;
43540;SDS011;29549;40.386;-3.710;2022-07-25T04:49:22;15.13;;;4.50;;
43540;SDS011;29549;40.386;-3.710;2022-07-25T04:59:24;15.05;;;4.63;;
43540;SDS011;29549;40.386;-3.710;2022-07-25T05:09:26;13.57;;;6.07;;
43540;SDS011;29549;40.386;-3.710;2022-07-25T05:19:28;14.18;;;6.07;;
43540;SDS011;29549;40.386;-3.710;2022-07-25T05:29:31;13.95;;;5.45;;
43540;SDS011;29549;40.386;-3.710;2022-07-25T05:39:33;13.85;;;5.43;;
43540;SDS011;29549;40.386;-3.710;2022-07-25T05:49:37;13.40;;;5.85;;
43540;SDS011;29549;40.386;-3.710;2022-07-25T05:59:39;11.93;;;5.97;;
43540;SDS011;29549;40.386;-3.710;2022-07-25T06:09:41;16.27;;;5.53;;
43540;SDS011;29549;40.386;-3.710;2022-07-25T06:19:43;13.63;;;5.15;;
43540;SDS011;29549;40.386;-3.710;2022-07-25T06:29:46;12.65;;;5.05;;
43540;SDS011;29549;40.386;-3.710;2022-07-25T06:39:48;18.15;;;5.18;;
43540;SDS011;29549;40.386;-3.710;2022-07-25T06:49:50;10.35;;;4.82;;
43540;SDS011;29549;40.386;-3.710;2022-07-25T06:59:52;12.07;;;4.88;;
43540;SDS011;29549;40.386;-3.710;2022-07-25T07:09:54;11.57;;;4.70;;
43540;SDS011;29549;40.386;-3.710;2022-07-25T07:19:55;11.02;;;5.13;;
43540;SDS011;29549;40.386;-3.710;2022-07-25T07:29:58;11.68;;;4.60;;
43540;SDS011;29549;40.386;-3.710;2022-07-25T07:39:59;12.18;;;5.05;;
43540;SDS011;29549;40.386;-3.710;2022-07-25T07:50:01;10.07;;;3.97;;
43540;SDS011;29549;40.386;-3.710;2022-07-25T08:00:03;9.00;;;4.20;;
43540;SDS011;29549;40.386;-3.710;2022-07-25T08:10:07;12.88;;;4.70;;
43540;SDS011;29549;40.386;-3.710;2022-07-25T08:20:10;8.00;;;4.25;;
43540;SDS011;29549;40.386;-3.710;2022-07-25T08:30:13;11.45;;;4.32;;
43540;SDS011;29549;40.386;-3.710;2022-07-25T08:40:15;15.77;;;5.85;;
43540;SDS011;29549;40.386;-3.710;2022-07-25T08:50:18;12.98;;;5.53;;
43540;SDS011;29549;40.386;-3.710;2022-07-25T09:00:22;8.30;;;3.67;;
43540;SDS011;29549;40.386;-3.710;2022-07-25T09:10:25;6.47;;;3.10;;
43540;SDS011;29549;40.386;-3.710;2022-07-25T09:31:01;5.00;;;2.70;;
43540;SDS011;29549;40.386;-3.710;2022-07-25T09:41:04;6.60;;;2.92;;
43540;SDS011;29549;40.386;-3.710;2022-07-25T09:51:07;6.40;;;2.90;;
43540;SDS011;29549;40.386;-3.710;2022-07-25T10:01:10;7.00;;;3.53;;
43540;SDS011;29549;40.386;-3.710;2022-07-25T10:11:18;7.18;;;2.63;;
43540;SDS011;29549;40.386;-3.710;2022-07-25T10:21:21;5.75;;;2.22;;
43540;SDS011;29549;40.386;-3.710;2022-07-25T10:31:25;7.30;;;2.70;;
43540;SDS011;29549;40.386;-3.710;2022-07-25T10:41:29;8.93;;;7.43;;
43540;SDS011;29549;40.386;-3.710;2022-07-25T10:51:32;5.00;;;2.65;;
43540;SDS011;29549;40.386;-3.710;2022-07-25T11:01:34;5.15;;;2.13;;
43540;SDS011;29549;40.386;-3.710;2022-07-25T11:11:37;4.80;;;1.95;;
43540;SDS011;29549;40.386;-3.710;2022-07-25T11:21:44;3.80;;;1.45;;
43540;SDS011;29549;40.386;-3.710;2022-07-25T11:42:01;4.27;;;3.30;;
43540;SDS011;29549;40.386;-3.710;2022-07-25T11:52:04;2.58;;;1.13;;
43540;SDS011;29549;40.386;-3.710;2022-07-25T12:02:06;3.13;;;1.13;;
43540;SDS011;29549;40.386;-3.710;2022-07-25T12:12:08;2.80;;;1.00;;
43540;SDS011;29549;40.386;-3.710;2022-07-25T12:22:10;4.65;;;2.72;;
43540;SDS011;29549;40.386;-3.710;2022-07-25T12:32:14;4.50;;;1.58;;
43540;SDS011;29549;40.386;-3.710;2022-07-25T12:42:16;2.08;;;1.08;;
43540;SDS011;29549;40.386;-3.710;2022-07-25T12:52:18;3.30;;;2.75;;
43540;SDS011;29549;40.386;-3.710;2022-07-25T13:02:20;2.63;;;0.90;;
43540;SDS011;29549;40.386;-3.710;2022-07-25T13:12:22;2.50;;;1.15;;
43540;SDS011;29549;40.386;-3.710;2022-07-25T13:22:25;4.40;;;1.92;;
43540;SDS011;29549;40.386;-3.710;2022-07-25T13:32:28;5.88;;;3.67;;
43540;SDS011;29549;40.386;-3.710;2022-07-25T13:42:31;3.00;;;1.77;;
43540;SDS011;29549;40.386;-3.710;2022-07-25T13:52:33;2.33;;;1.38;;
43540;SDS011;29549;40.386;-3.710;2022-07-25T14:02:35;3.72;;;1.25;;
43540;SDS011;29549;40.386;-3.710;2022-07-25T14:12:39;2.67;;;1.70;;
43540;SDS011;29549;40.386;-3.710;2022-07-25T14:22:42;4.85;;;1.55;;
43540;SDS011;29549;40.386;-3.710;2022-07-25T14:32:45;3.92;;;1.58;;
43540;SDS011;29549;40.386;-3.710;2022-07-25T14:42:47;5.68;;;1.92;;
43540;SDS011;29549;40.386;-3.710;2022-07-25T14:52:49;2.70;;;1.50;;
43540;SDS011;29549;40.386;-3.710;2022-07-25T15:02:50;2.88;;;1.38;;
43540;SDS011;29549;40.386;-3.710;2022-07-25T15:12:52;5.07;;;2.97;;
43540;SDS011;29549;40.386;-3.710;2022-07-25T15:22:54;5.82;;;2.00;;
43540;SDS011;29549;40.386;-3.710;2022-07-25T15:32:55;2.72;;;1.60;;
43540;SDS011;29549;40.386;-3.710;2022-07-25T15:42:57;6.90;;;2.30;;
43540;SDS011;29549;40.386;-3.710;2022-07-25T15:52:59;4.25;;;3.22;;
43540;SDS011;29549;40.386;-3.710;2022-07-25T16:03:01;3.83;;;2.42;;
43540;SDS011;29549;40.386;-3.710;2022-07-25T16:13:03;4.75;;;2.58;;
43540;SDS011;29549;40.386;-3.710;2022-07-25T16:23:05;3.45;;;2.38;;
43540;SDS011;29549;40.386;-3.710;2022-07-25T16:33:07;4.90;;;2.50;;
43540;SDS011;29549;40.386;-3.710;2022-07-25T16:43:08;3.65;;;2.33;;
43540;SDS011;29549;40.386;-3.710;2022-07-25T16:53:10;4.95;;;2.42;;
43540;SDS011;29549;40.386;-3.710;2022-07-25T17:03:11;5.63;;;2.13;;
43540;SDS011;29549;40.386;-3.710;2022-07-25T17:13:14;3.13;;;2.30;;
43540;SDS011;29549;40.386;-3.710;2022-07-25T17:23:15;3.40;;;2.10;;
43540;SDS011;29549;40.386;-3.710;2022-07-25T17:33:17;4.03;;;2.17;;
43540;SDS011;29549;40.386;-3.710;2022-07-25T17:43:19;2.78;;;2.03;;
43540;SDS011;29549;40.386;-3.710;2022-07-25T17:53:20;3.10;;;2.33;;
43540;SDS011;29549;40.386;-3.710;2022-07-25T18:03:22;3.20;;;2.20;;
43540;SDS011;29549;40.386;-3.710;2022-07-25T18:13:26;2.83;;;2.30;;
43540;SDS011;29549;40.386;-3.710;2022-07-25T18:23:28;5.00;;;2.38;;
43540;SDS011;29549;40.386;-3.710;2022-07-25T18:33:30;4.10;;;2.28;;
43540;SDS011;29549;40.386;-3.710;2022-07-25T18:43:31;5.63;;;2.70;;
43540;SDS011;29549;40.386;-3.710;2022-07-25T18:53:33;4.28;;;2.67;;
43540;SDS011;29549;40.386;-3.710;2022-07-25T19:03:35;3.08;;;2.58;;
43540;SDS011;29549;40.386;-3.710;2022-07-25T19:13:37;3.72;;;2.70;;
43540;SDS011;29549;40.386;-3.710;2022-07-25T19:23:42;4.88;;;2.60;;
43540;SDS011;29549;40.386;-3.710;2022-07-25T19:33:43;4.88;;;2.85;;
43540;SDS011;29549;40.386;-3.710;2022-07-25T19:43:46;3.90;;;2.72;;
43540;SDS011;29549;40.386;-3.710;2022-07-25T19:53:47;7.03;;;5.50;;
43540;SDS011;29549;40.386;-3.710;2022-07-25T20:03:48;3.20;;;2.70;;
43540;SDS011;29549;40.386;-3.710;2022-07-25T20:13:50;4.40;;;2.88;;
43540;SDS011;29549;40.386;-3.710;2022-07-25T20:23:52;6.95;;;3.83;;
43540;SDS011;29549;40.386;-3.710;2022-07-25T20:33:53;5.85;;;5.15;;
43540;SDS011;29549;40.386;-3.710;2022-07-25T20:43:55;4.78;;;3.08;;
43540;SDS011;29549;40.386;-3.710;2022-07-25T20:53:56;6.68;;;4.60;;
43540;SDS011;29549;40.386;-3.710;2022-07-25T21:03:58;3.90;;;2.85;;
43540;SDS011;29549;40.386;-3.710;2022-07-25T21:14:01;7.20;;;3.42;;
43540;SDS011;29549;40.386;-3.710;2022-07-25T21:24:04;4.35;;;2.90;;
43540;SDS011;29549;40.386;-3.710;2022-07-25T21:34:06;5.85;;;4.50;;
43540;SDS011;29549;40.386;-3.710;2022-07-25T21:44:08;3.42;;;2.28;;
43540;SDS011;29549;40.386;-3.710;2022-07-25T21:54:10;6.15;;;2.75;;
43540;SDS011;29549;40.386;-3.710;2022-07-25T22:04:11;7.43;;;6.13;;
43540;SDS011;29549;40.386;-3.710;2022-07-25T22:14:13;4.75;;;2.70;;
43540;SDS011;29549;40.386;-3.710;2022-07-25T22:24:15;6.97;;;3.33;;
43540;SDS011;29549;40.386;-3.710;2022-07-25T22:34:17;5.03;;;2.85;;
43540;SDS011;29549;40.386;-3.710;2022-07-25T22:44:19;6.32;;;2.80;;
43540;SDS011;29549;40.386;-3.710;2022-07-25T22:54:20;4.45;;;3.00;;
43540;SDS011;29549;40.386;-3.710;2022-07-25T23:04:22;6.43;;;3.10;;
43540;SDS011;29549;40.386;-3.710;2022-07-25T23:14:24;12.40;;;4.22;;
43540;SDS011;29549;40.386;-3.710;2022-07-25T23:24:26;4.68;;;2.80;;
43540;SDS011;29549;40.386;-3.710;2022-07-25T23:34:27;6.82;;;3.58;;
43540;SDS011;29549;40.386;-3.710;2022-07-25T23:44:29;7.50;;;4.00;;
43540;SDS011;29549;40.386;-3.710;2022-07-25T23:54:31;7.35;;;5.97;;
